createdAt,value
2022-09-21T00:04:50.905Z,2.92
2022-09-21T00:09:52.458Z,3.60
2022-09-21T00:14:54.023Z,2.60
2022-09-21T00:19:55.574Z,3.20
2022-09-21T00:24:57.146Z,3.08
2022-09-21T00:30:03.575Z,3.20
2022-09-21T00:35:07.601Z,3.08
2022-09-21T00:40:09.489Z,3.00
2022-09-21T00:45:21.070Z,2.97
2022-09-21T00:50:24.563Z,3.50
2022-09-21T00:55:33.635Z,3.08
2022-09-21T01:00:37.250Z,3.10
2022-09-21T01:05:39.088Z,3.22
2022-09-21T01:10:47.030Z,3.17
2022-09-21T01:16:04.702Z,3.22
2022-09-21T01:21:27.746Z,2.90
2022-09-21T01:26:57.643Z,3.80
2022-09-21T01:32:15.298Z,3.42
2022-09-21T01:37:22.472Z,3.63
2022-09-21T01:42:27.550Z,3.90
2022-09-21T01:47:31.418Z,3.13
2022-09-21T01:52:41.304Z,3.42
2022-09-21T01:57:45.832Z,3.58
2022-09-21T02:02:58.461Z,3.90
2022-09-21T02:08:00.806Z,3.88
2022-09-21T02:13:06.176Z,4.15
2022-09-21T02:18:32.873Z,4.13
2022-09-21T02:23:49.368Z,4.05
2022-09-21T02:29:04.612Z,3.88
2022-09-21T02:34:19.913Z,4.00
2022-09-21T02:39:47.767Z,3.72
2022-09-21T02:44:57.638Z,4.07
2022-09-21T02:50:06.132Z,4.15
2022-09-21T02:55:09.122Z,4.00
2022-09-21T03:00:11.541Z,4.25
2022-09-21T03:05:14.557Z,4.30
2022-09-21T03:10:16.219Z,4.00
2022-09-21T03:15:18.138Z,4.47
2022-09-21T03:20:19.702Z,4.10
2022-09-21T03:25:21.261Z,3.97
2022-09-21T03:30:24.417Z,3.83
2022-09-21T03:35:26.627Z,4.15
2022-09-21T03:40:28.631Z,4.40
2022-09-21T03:45:30.287Z,5.13
2022-09-21T03:50:31.856Z,5.28
2022-09-21T03:55:33.713Z,5.43
2022-09-21T04:00:35.935Z,4.78
2022-09-21T04:05:38.959Z,5.53
2022-09-21T04:10:42.585Z,4.78
2022-09-21T04:15:44.168Z,5.13
2022-09-21T04:20:45.757Z,5.45
2022-09-21T04:25:51.192Z,4.60
2022-09-21T04:30:54.204Z,5.63
2022-09-21T04:35:56.585Z,4.90
2022-09-21T04:40:58.710Z,4.88
2022-09-21T04:46:06.131Z,5.55
2022-09-21T04:51:08.380Z,5.40
2022-09-21T04:56:13.158Z,7.18
2022-09-21T05:01:14.952Z,6.22
2022-09-21T05:06:16.660Z,6.97
2022-09-21T05:11:19.177Z,6.75
2022-09-21T05:16:20.928Z,6.80
2022-09-21T05:21:23.683Z,8.15
2022-09-21T05:26:25.620Z,7.13
2022-09-21T05:31:50.904Z,7.13
2022-09-21T05:36:55.284Z,8.43
2022-09-21T05:41:57.332Z,6.63
2022-09-21T05:47:16.782Z,7.20
2022-09-21T05:52:45.540Z,7.63
2022-09-21T05:58:18.507Z,7.88
2022-09-21T06:03:29.931Z,6.78
2022-09-21T06:08:31.476Z,6.60
2022-09-21T06:13:33.026Z,6.82
2022-09-21T06:18:42.196Z,6.75
2022-09-21T06:23:43.765Z,7.20
2022-09-21T06:28:45.360Z,6.63
2022-09-21T06:33:48.264Z,6.05
2022-09-21T06:38:50.011Z,5.75
2022-09-21T06:43:55.956Z,5.78
2022-09-21T06:48:57.656Z,5.80
2022-09-21T06:53:59.383Z,5.90
2022-09-21T06:59:00.987Z,5.95
2022-09-21T07:04:02.589Z,5.47
2022-09-21T07:14:25.720Z,5.45
2022-09-21T07:19:27.325Z,5.70
2022-09-21T07:24:28.993Z,6.63
2022-09-21T07:29:30.806Z,5.95
2022-09-21T07:34:37.134Z,6.40
2022-09-21T07:39:38.904Z,5.90
2022-09-21T07:44:41.124Z,5.90
2022-09-21T07:49:42.926Z,6.28
2022-09-21T07:54:45.036Z,6.72
2022-09-21T07:59:46.719Z,6.70
2022-09-21T08:04:48.393Z,5.85
2022-09-21T08:09:51.151Z,6.15
2022-09-21T08:14:52.922Z,6.13
2022-09-21T08:19:54.713Z,5.68
2022-09-21T08:24:57.034Z,5.38
2022-09-21T08:29:58.745Z,5.07
2022-09-21T08:35:00.793Z,5.07
2022-09-21T08:40:07.250Z,4.18
2022-09-21T08:45:17.628Z,4.43
2022-09-21T08:50:22.137Z,4.45
2022-09-21T08:55:24.734Z,11.40
2022-09-21T09:00:27.914Z,17.40
2022-09-21T09:06:07.700Z,2.90
2022-09-21T09:11:24.155Z,1.60
2022-09-21T09:16:43.375Z,1.60
2022-09-21T09:21:46.101Z,1.67
2022-09-21T09:26:56.310Z,1.80
2022-09-21T09:32:01.038Z,0.90
2022-09-21T09:37:12.082Z,0.90
2022-09-21T09:42:39.581Z,1.60
2022-09-21T09:47:53.620Z,1.33
2022-09-21T09:53:12.757Z,1.27
2022-09-21T09:58:20.868Z,1.40
2022-09-21T10:03:25.788Z,1.27
2022-09-21T10:08:30.270Z,1.23
2022-09-21T10:13:35.694Z,1.50
2022-09-21T10:18:50.314Z,1.20
2022-09-21T10:24:01.550Z,1.40
2022-09-21T10:29:17.359Z,1.33
2022-09-21T10:34:18.937Z,2.70
2022-09-21T10:39:29.250Z,1.00
2022-09-21T10:44:39.049Z,1.35
2022-09-21T10:49:46.901Z,0.75
2022-09-21T10:54:52.210Z,1.15
2022-09-21T10:59:54.216Z,0.80
2022-09-21T11:05:26.725Z,0.88
2022-09-21T11:10:46.135Z,1.38
2022-09-21T11:15:57.856Z,1.00
2022-09-21T11:21:13.126Z,1.30
2022-09-21T11:26:27.254Z,1.30
2022-09-21T11:31:39.449Z,1.02
2022-09-21T11:36:59.610Z,1.13
2022-09-21T11:42:23.083Z,0.80
2022-09-21T11:47:54.042Z,1.02
2022-09-21T11:53:17.723Z,1.00
2022-09-21T11:58:41.465Z,0.80
2022-09-21T12:04:13.953Z,0.80
2022-09-21T12:09:20.798Z,0.90
2022-09-21T12:14:34.425Z,1.02
2022-09-21T12:19:56.328Z,1.17
2022-09-21T12:25:16.888Z,1.05
2022-09-21T12:30:21.689Z,1.30
2022-09-21T12:35:34.433Z,0.77
2022-09-21T12:40:47.333Z,1.02
2022-09-21T12:46:08.976Z,1.42
2022-09-21T12:51:25.356Z,1.10
2022-09-21T12:56:37.352Z,0.82
2022-09-21T13:01:49.742Z,0.95
2022-09-21T13:07:08.633Z,1.20
2022-09-21T13:12:26.076Z,1.00
2022-09-21T13:17:32.681Z,0.80
2022-09-21T13:28:15.393Z,0.90
2022-09-21T13:33:19.963Z,0.80
2022-09-21T13:38:38.440Z,1.02
2022-09-21T13:44:05.887Z,0.70
2022-09-21T13:49:11.334Z,0.57
2022-09-21T13:54:14.209Z,0.98
2022-09-21T13:59:23.101Z,1.30
2022-09-21T14:04:33.114Z,1.00
2022-09-21T14:09:53.588Z,0.90
2022-09-21T14:15:17.239Z,0.80
2022-09-21T14:20:37.129Z,1.00
2022-09-21T14:25:53.331Z,0.50
2022-09-21T14:30:59.232Z,1.08
2022-09-21T14:36:07.281Z,0.80
2022-09-21T14:41:17.249Z,0.80
2022-09-21T14:46:38.081Z,1.40
2022-09-21T14:52:22.524Z,1.17
2022-09-21T14:57:57.340Z,1.08
2022-09-21T15:03:28.701Z,0.90
2022-09-21T15:08:58.236Z,0.82
2022-09-21T15:14:18.663Z,0.80
2022-09-21T15:19:35.464Z,1.30
2022-09-21T15:24:37.256Z,1.40
2022-09-21T15:29:39.789Z,1.40
2022-09-21T15:34:41.396Z,1.15
2022-09-21T15:39:43.665Z,0.70
2022-09-21T15:44:48.613Z,0.85
2022-09-21T15:49:54.025Z,0.80
2022-09-21T15:55:00.281Z,0.80
2022-09-21T16:00:12.709Z,0.90
2022-09-21T16:05:15.268Z,0.70
2022-09-21T16:10:37.916Z,0.63
2022-09-21T16:15:39.556Z,0.93
2022-09-21T16:20:47.779Z,0.88
2022-09-21T16:26:01.154Z,0.80
2022-09-21T16:31:36.712Z,0.93
2022-09-21T16:36:41.788Z,0.80
2022-09-21T16:41:56.302Z,1.70
2022-09-21T16:47:02.461Z,1.17
2022-09-21T16:52:04.236Z,0.90
2022-09-21T16:57:06.659Z,0.93
2022-09-21T17:02:10.746Z,0.82
2022-09-21T17:07:13.961Z,0.80
2022-09-21T17:12:17.674Z,0.75
2022-09-21T17:17:24.850Z,0.90
2022-09-21T17:22:26.672Z,0.77
2022-09-21T17:27:29.020Z,1.00
2022-09-21T17:32:33.150Z,1.10
2022-09-21T17:37:38.005Z,1.25
2022-09-21T17:42:42.048Z,1.08
2022-09-21T17:47:43.902Z,1.00
2022-09-21T17:53:04.525Z,0.90
2022-09-21T17:58:14.425Z,1.10
2022-09-21T18:03:28.033Z,1.20
2022-09-21T18:08:33.777Z,1.50
2022-09-21T18:13:47.981Z,1.40
2022-09-21T18:19:04.518Z,2.33
2022-09-21T18:24:11.896Z,1.70
2022-09-21T18:29:39.339Z,1.80
2022-09-21T18:35:10.466Z,2.70
2022-09-21T18:41:00.336Z,3.30
2022-09-21T18:46:05.583Z,4.47
2022-09-21T18:51:18.945Z,6.43
2022-09-21T18:56:20.993Z,8.73
2022-09-21T19:01:23.683Z,6.50
2022-09-21T19:06:37.448Z,6.68
2022-09-21T19:11:45.257Z,3.95
2022-09-21T19:17:09.036Z,3.60
2022-09-21T19:22:43.158Z,3.55
2022-09-21T19:27:57.822Z,3.53
2022-09-21T19:33:01.083Z,3.50
2022-09-21T19:38:03.934Z,3.83
2022-09-21T19:43:28.304Z,3.72
2022-09-21T19:48:35.021Z,3.95
2022-09-21T19:53:55.592Z,3.43
2022-09-21T19:59:16.134Z,3.67
2022-09-21T20:04:24.805Z,3.88
2022-09-21T20:09:36.514Z,3.80
2022-09-21T20:14:49.307Z,3.92
2022-09-21T20:20:08.004Z,3.50
2022-09-21T20:25:32.331Z,4.20
2022-09-21T20:30:35.888Z,4.40
2022-09-21T20:35:37.549Z,4.00
2022-09-21T20:40:41.000Z,4.18
2022-09-21T20:45:47.607Z,4.03
2022-09-21T20:50:50.457Z,4.10
2022-09-21T20:55:57.196Z,3.88
2022-09-21T21:01:08.743Z,4.10
2022-09-21T21:06:13.796Z,5.57
2022-09-21T21:11:15.543Z,4.80
2022-09-21T21:16:17.486Z,4.90
2022-09-21T21:21:19.126Z,4.32
2022-09-21T21:26:20.881Z,4.63
2022-09-21T21:31:24.894Z,3.80
2022-09-21T21:36:26.570Z,3.45
2022-09-21T21:41:28.282Z,3.47
2022-09-21T21:46:29.918Z,3.22
2022-09-21T21:51:31.772Z,3.40
2022-09-21T21:56:33.348Z,3.65
2022-09-21T22:01:35.012Z,5.43
2022-09-21T22:06:38.321Z,4.18
2022-09-21T22:11:40.280Z,3.97
2022-09-21T22:16:42.318Z,3.70
2022-09-21T22:21:53.175Z,3.55
2022-09-21T22:26:55.757Z,3.60
2022-09-21T22:31:57.449Z,3.38
2022-09-21T22:36:59.416Z,3.47
2022-09-21T22:42:01.417Z,2.90
2022-09-21T22:47:03.173Z,2.70
2022-09-21T22:52:04.846Z,2.90
2022-09-21T22:57:06.420Z,2.80
2022-09-21T23:02:11.491Z,2.83
2022-09-21T23:07:13.239Z,2.60
2022-09-21T23:12:14.976Z,2.80
2022-09-21T23:17:16.597Z,2.53
2022-09-21T23:22:19.759Z,2.92
2022-09-21T23:27:21.362Z,2.42
2022-09-21T23:32:24.016Z,2.63
2022-09-21T23:37:25.633Z,2.13
2022-09-21T23:42:27.198Z,2.50
2022-09-21T23:47:28.781Z,2.40
2022-09-21T23:52:31.087Z,2.35
2022-09-21T23:57:32.778Z,2.40
